Time;durP1;ratioP1;P1;durP2;ratioP2;P2;SDS_P1;SDS_P2;PMS_P1;PMS_P2;Temp;Humidity;BMP_temperature;BMP_pressure;BME280_temperature;BME280_humidity;BME280_pressure;Samples;Min_cycle;Max_cycle;Signal;HPM_P1;HPM_P2
2023/09/20 00:02:17;;;;;;;8.90;6.60;;;;;;;18.15;51.31;100476.86;108132;1254;60312;-67
2023/09/20 00:04:47;;;;;;;8.30;6.40;;;;;;;18.16;51.30;100478.23;108176;1257;72872;-67
2023/09/20 00:07:16;;;;;;;10.60;6.80;;;;;;;18.17;51.53;100479.89;108136;1257;71345;-67
2023/09/20 00:09:43;;;;;;;9.50;6.70;;;;;;;18.18;51.39;100485.42;108123;1254;71403;-67
2023/09/20 00:12:11;;;;;;;11.70;6.80;;;;;;;18.20;51.31;100486.14;108163;1257;60594;-68
2023/09/20 00:14:39;;;;;;;9.50;6.70;;;;;;;18.21;51.31;100493.39;108179;1254;60988;-67
2023/09/20 00:17:06;;;;;;;9.50;6.10;;;;;;;18.23;51.03;100492.90;108109;1254;76146;-68
2023/09/20 00:19:38;;;;;;;9.90;6.40;;;;;;;18.27;50.96;100495.14;108196;1254;71584;-67
2023/09/20 00:22:10;;;;;;;8.40;6.70;;;;;;;18.30;50.94;100496.79;108015;1257;71045;-68
2023/09/20 00:24:38;;;;;;;9.90;6.30;;;;;;;18.34;50.78;100495.60;108148;1255;59858;-68
2023/09/20 00:27:08;;;;;;;9.30;6.60;;;;;;;18.39;50.79;100497.37;107995;1255;60579;-68
2023/09/20 00:29:37;;;;;;;10.40;6.30;;;;;;;18.43;50.86;100498.12;108200;1254;72585;-68
2023/09/20 00:32:07;;;;;;;9.20;6.60;;;;;;;18.47;50.83;100501.34;108165;1254;73037;-68
2023/09/20 00:34:35;;;;;;;8.60;5.50;;;;;;;18.50;50.93;100497.93;108153;1254;72640;-68
2023/09/20 00:37:03;;;;;;;7.60;6.00;;;;;;;18.54;51.08;100496.80;108112;1254;60261;-68
2023/09/20 00:39:30;;;;;;;7.20;5.70;;;;;;;18.58;51.12;100497.41;108000;1257;60434;-68
2023/09/20 00:41:58;;;;;;;9.00;5.70;;;;;;;18.61;51.23;100498.20;108013;1257;73905;-68
2023/09/20 00:44:26;;;;;;;8.40;5.50;;;;;;;18.64;51.02;100499.97;108079;1254;72986;-68
2023/09/20 00:46:54;;;;;;;8.80;5.60;;;;;;;18.68;51.18;100497.85;108190;1254;72632;-68
2023/09/20 00:49:22;;;;;;;8.20;5.40;;;;;;;18.72;51.13;100500.79;107878;1255;60491;-68
2023/09/20 00:51:51;;;;;;;8.70;5.30;;;;;;;18.77;51.10;100497.91;108118;1253;60550;-68
2023/09/20 00:54:18;;;;;;;9.90;5.70;;;;;;;18.81;51.09;100496.38;108155;1254;73852;-68
2023/09/20 00:56:46;;;;;;;6.70;5.50;;;;;;;18.86;51.22;100500.52;107967;1254;74214;-69
2023/09/20 00:59:14;;;;;;;7.30;5.50;;;;;;;18.91;51.21;100501.08;107939;1254;72794;-68
2023/09/20 01:01:41;;;;;;;6.10;5.40;;;;;;;18.95;50.92;100502.40;107940;1254;60530;-69
2023/09/20 01:04:09;;;;;;;6.90;5.10;;;;;;;19.01;50.54;100506.86;108130;1253;60334;-68
2023/09/20 01:06:37;;;;;;;6.90;5.30;;;;;;;19.06;50.27;100508.98;108029;1254;73912;-69
2023/09/20 01:09:04;;;;;;;7.40;5.50;;;;;;;19.11;50.09;100510.22;108012;1258;72946;-68
2023/09/20 01:11:32;;;;;;;5.90;5.30;;;;;;;19.16;49.80;100509.84;107988;1256;70685;-68
2023/09/20 01:14:00;;;;;;;10.60;5.30;;;;;;;19.20;49.48;100511.49;107914;1256;60470;-67
2023/09/20 01:16:27;;;;;;;7.00;5.10;;;;;;;19.25;49.25;100514.81;107902;1254;60349;-69
2023/09/20 01:18:55;;;;;;;8.70;5.70;;;;;;;19.28;49.18;100513.36;108165;1254;74126;-67
2023/09/20 01:21:23;;;;;;;7.10;5.50;;;;;;;19.32;49.10;100515.05;107934;1254;71740;-68
2023/09/20 01:23:51;;;;;;;6.90;5.20;;;;;;;19.34;49.07;100511.45;108027;1258;74870;-68
2023/09/20 01:26:19;;;;;;;6.30;5.20;;;;;;;19.37;48.94;100513.21;108013;1255;60443;-68
2023/09/20 01:28:47;;;;;;;6.90;5.50;;;;;;;19.39;48.81;100515.16;107797;1257;60215;-67
2023/09/20 01:31:15;;;;;;;6.00;4.70;;;;;;;19.41;48.51;100519.05;107834;1257;72757;-67
2023/09/20 01:33:43;;;;;;;10.60;5.80;;;;;;;19.43;48.52;100519.52;107944;1254;72895;-68
2023/09/20 01:36:10;;;;;;;7.90;5.30;;;;;;;19.46;48.41;100518.48;107918;1254;71452;-68
2023/09/20 01:38:39;;;;;;;6.70;5.40;;;;;;;19.48;48.23;100522.77;108068;1254;60427;-68
2023/09/20 01:41:08;;;;;;;8.10;5.50;;;;;;;19.50;48.00;100522.15;108112;1254;60170;-68
2023/09/20 01:43:38;;;;;;;6.00;5.20;;;;;;;19.52;47.86;100519.55;108104;1254;72799;-68
2023/09/20 01:46:05;;;;;;;8.20;4.90;;;;;;;19.54;47.85;100522.73;108155;1259;71526;-68
2023/09/20 01:48:33;;;;;;;9.40;5.80;;;;;;;19.56;47.87;100520.75;108016;1254;72743;-67
2023/09/20 01:51:02;;;;;;;8.30;5.20;;;;;;;19.59;47.66;100523.50;107964;1254;60536;-67
2023/09/20 01:53:30;;;;;;;6.90;5.10;;;;;;;19.60;47.51;100519.05;108180;1254;60098;-68
2023/09/20 01:55:58;;;;;;;6.20;4.80;;;;;;;19.61;47.42;100517.95;108002;1254;72543;-69
2023/09/20 01:58:26;;;;;;;6.80;5.10;;;;;;;19.63;47.40;100513.46;108034;1259;71126;-68
2023/09/20 02:00:54;;;;;;;6.10;5.30;;;;;;;19.64;47.47;100511.98;108142;1254;71458;-69
2023/09/20 02:03:21;;;;;;;7.00;5.20;;;;;;;19.66;47.58;100517.95;108023;1254;60423;-68
2023/09/20 02:05:49;;;;;;;6.70;5.30;;;;;;;19.67;47.84;100519.31;108168;1254;60184;-68
2023/09/20 02:08:17;;;;;;;7.70;5.40;;;;;;;19.67;48.18;100519.73;108105;1255;73864;-68
2023/09/20 02:10:47;;;;;;;5.80;5.00;;;;;;;19.67;48.44;100520.08;108150;1254;71377;-68
2023/09/20 02:13:18;;;;;;;7.30;5.60;;;;;;;19.65;48.69;100524.98;108037;1254;72455;-68
2023/09/20 02:15:47;;;;;;;8.10;5.40;;;;;;;19.63;48.93;100527.39;108085;1257;60316;-69
2023/09/20 02:18:15;;;;;;;7.70;5.00;;;;;;;19.61;49.19;100529.77;108109;1254;60325;-69
2023/09/20 02:20:44;;;;;;;7.10;5.80;;;;;;;19.58;49.43;100527.26;108072;1254;72540;-68
2023/09/20 02:23:15;;;;;;;7.50;5.20;;;;;;;19.57;49.44;100526.39;108038;1254;71731;-69
2023/09/20 02:25:43;;;;;;;6.70;5.00;;;;;;;19.55;49.62;100523.89;108157;1259;72718;-68
2023/09/20 02:28:14;;;;;;;7.00;5.10;;;;;;;19.54;49.81;100521.26;108073;1254;61747;-68
2023/09/20 02:30:41;;;;;;;6.00;4.80;;;;;;;19.53;49.78;100525.30;108084;1255;60514;-67
2023/09/20 02:33:11;;;;;;;8.80;5.20;;;;;;;19.53;49.94;100527.07;108170;1258;73806;-67
2023/09/20 02:35:39;;;;;;;7.20;5.30;;;;;;;19.51;49.98;100521.67;108233;1254;72706;-69
2023/09/20 02:38:09;;;;;;;6.40;5.20;;;;;;;19.52;49.98;100522.80;108154;1254;71641;-68
2023/09/20 02:40:38;;;;;;;8.70;5.20;;;;;;;19.53;49.95;100521.95;108179;1254;60430;-68
2023/09/20 02:43:12;;;;;;;7.00;5.50;;;;;;;19.53;50.01;100518.36;108144;1254;60954;-68
2023/09/20 02:45:46;;;;;;;7.90;5.30;;;;;;;19.55;50.05;100518.80;108174;1254;72790;-68
2023/09/20 02:48:14;;;;;;;6.90;5.30;;;;;;;19.55;49.79;100519.16;108390;1254;71472;-68
2023/09/20 02:50:44;;;;;;;8.80;5.20;;;;;;;19.57;49.55;100518.75;108069;1258;72693;-68
2023/09/20 02:53:13;;;;;;;8.90;5.50;;;;;;;19.58;49.27;100519.80;107990;1254;62156;-68
2023/09/20 02:55:42;;;;;;;7.20;5.10;;;;;;;19.59;49.12;100514.61;108036;1255;60327;-68
2023/09/20 02:58:10;;;;;;;10.10;5.80;;;;;;;19.60;49.30;100516.57;108202;1254;73800;-68
2023/09/20 03:00:46;;;;;;;7.10;5.20;;;;;;;19.61;49.27;100512.91;108081;1254;72815;-68
2023/09/20 03:03:17;;;;;;;10.30;5.70;;;;;;;19.62;49.24;100512.25;108150;1254;71206;-68
2023/09/20 03:05:45;;;;;;;7.40;5.20;;;;;;;19.63;49.01;100511.68;108015;1254;60456;-68
2023/09/20 03:08:13;;;;;;;7.50;5.50;;;;;;;19.64;49.31;100509.48;107900;1255;60520;-69
2023/09/20 03:10:42;;;;;;;5.90;5.10;;;;;;;19.65;49.40;100511.26;108131;1254;71991;-69
2023/09/20 03:13:16;;;;;;;7.20;5.10;;;;;;;19.65;49.43;100508.42;108142;1259;72541;-67
2023/09/20 03:15:48;;;;;;;6.80;5.20;;;;;;;19.66;49.53;100511.83;107967;1257;71345;-67
2023/09/20 03:18:18;;;;;;;7.80;5.40;;;;;;;19.63;49.53;100507.61;108010;1257;60428;-68
2023/09/20 03:20:53;;;;;;;6.30;4.70;;;;;;;19.62;49.60;100505.20;108019;1254;60361;-68
2023/09/20 03:23:22;;;;;;;6.70;5.20;;;;;;;19.60;49.72;100500.25;108032;1254;73876;-69
2023/09/20 03:25:50;;;;;;;7.00;5.10;;;;;;;19.57;49.90;100496.56;108127;1258;72060;-68
2023/09/20 03:28:23;;;;;;;6.10;5.10;;;;;;;19.56;50.08;100494.40;108175;1259;71810;-68
2023/09/20 03:30:53;;;;;;;7.50;5.20;;;;;;;19.54;50.39;100495.79;108040;1257;61663;-69
2023/09/20 03:33:21;;;;;;;7.20;5.40;;;;;;;19.53;50.69;100495.45;108035;1258;60416;-67
2023/09/20 03:35:51;;;;;;;7.70;4.70;;;;;;;19.53;50.82;100496.98;108117;1257;72164;-68
2023/09/20 03:38:19;;;;;;;6.40;5.20;;;;;;;19.52;51.41;100495.22;107994;1258;75356;-67
2023/09/20 03:40:47;;;;;;;7.20;4.90;;;;;;;19.51;51.78;100495.02;107826;1257;72804;-68
2023/09/20 03:43:15;;;;;;;6.20;4.90;;;;;;;19.51;52.32;100496.42;107977;1257;60414;-67
2023/09/20 03:45:47;;;;;;;7.90;5.20;;;;;;;19.50;52.76;100499.39;108025;1258;60324;-67
2023/09/20 03:48:16;;;;;;;6.50;5.00;;;;;;;19.48;53.43;100500.65;107969;1257;71837;-67
2023/09/20 03:50:45;;;;;;;7.80;5.40;;;;;;;19.47;53.86;100505.98;107899;1257;71949;-67
2023/09/20 03:53:13;;;;;;;6.10;5.00;;;;;;;19.43;54.44;100505.01;108069;1260;71774;-68
2023/09/20 03:55:46;;;;;;;9.00;5.50;;;;;;;19.38;54.81;100503.59;108065;1256;61859;-69
2023/09/20 03:58:14;;;;;;;8.80;5.40;;;;;;;19.34;55.28;100500.91;107960;1255;60220;-69
2023/09/20 04:00:45;;;;;;;7.00;5.20;;;;;;;19.31;55.80;100502.65;108050;1254;72730;-69
2023/09/20 04:03:13;;;;;;;;;;;;;;;19.29;56.30;100504.20;108139;1254;71431;-68
2023/09/20 04:05:42;;;;;;;6.80;5.10;;;;;;;19.27;56.59;100501.29;108139;1258;72669;-69
2023/09/20 04:08:16;;;;;;;7.80;5.00;;;;;;;19.27;56.93;100501.38;108104;1260;62898;-69
2023/09/20 04:10:46;;;;;;;7.50;5.10;;;;;;;19.27;57.22;100498.13;108164;1254;60337;-71
2023/09/20 04:13:17;;;;;;;8.00;5.20;;;;;;;19.28;57.53;100500.17;108060;1254;74236;-69
2023/09/20 04:15:45;;;;;;;;;;;;;;;19.28;57.49;100501.48;108111;1259;72770;-69
2023/09/20 04:18:13;;;;;;;7.00;5.60;;;;;;;19.28;57.87;100503.53;108011;1256;72958;-68
2023/09/20 04:20:45;;;;;;;8.80;5.70;;;;;;;19.27;58.42;100505.48;108051;1260;61719;-69
2023/09/20 04:23:13;;;;;;;6.80;5.60;;;;;;;19.26;58.57;100504.41;108134;1257;60517;-69
2023/09/20 04:25:41;;;;;;;7.00;5.70;;;;;;;19.23;58.99;100506.15;108135;1254;72728;-69
2023/09/20 04:28:09;;;;;;;7.50;5.90;;;;;;;19.21;59.22;100504.10;108115;1254;72754;-69
2023/09/20 04:30:38;;;;;;;8.60;5.60;;;;;;;19.20;59.59;100503.40;108127;1255;73613;-68
2023/09/20 04:33:10;;;;;;;6.90;5.60;;;;;;;19.20;59.95;100503.48;107984;1257;60891;-68
2023/09/20 04:35:40;;;;;;;6.90;5.60;;;;;;;19.22;60.15;100503.23;108133;1259;60293;-68
2023/09/20 04:38:13;;;;;;;6.60;5.40;;;;;;;19.23;60.32;100505.52;108130;1254;74670;-68
2023/09/20 04:40:41;;;;;;;8.90;5.70;;;;;;;19.23;60.52;100501.26;108024;1254;72726;-68
2023/09/20 04:43:09;;;;;;;8.80;5.80;;;;;;;19.27;60.76;100504.38;108099;1260;72682;-68
2023/09/20 04:45:38;;;;;;;7.90;5.10;;;;;;;19.29;60.73;100505.45;108188;1257;60411;-69
2023/09/20 04:48:08;;;;;;;7.30;5.10;;;;;;;19.33;60.88;100504.60;108041;1254;60892;-69
2023/09/20 04:50:36;;;;;;;7.50;5.00;;;;;;;19.37;60.90;100506.77;108144;1254;75228;-69
2023/09/20 04:53:04;;;;;;;5.70;5.10;;;;;;;19.38;60.94;100507.00;108025;1255;71889;-69
2023/09/20 04:55:34;;;;;;;7.00;5.70;;;;;;;19.41;61.09;100507.67;108200;1254;70357;-68
2023/09/20 04:58:02;;;;;;;7.00;5.20;;;;;;;19.45;61.11;100510.70;108090;1254;62706;-68
2023/09/20 05:00:37;;;;;;;7.00;5.10;;;;;;;19.48;61.22;100507.67;108183;1260;60440;-68
2023/09/20 05:03:11;;;;;;;7.30;5.50;;;;;;;19.52;61.19;100507.99;108104;1254;75103;-68
2023/09/20 05:05:39;;;;;;;6.70;5.10;;;;;;;19.54;61.11;100505.45;108086;1254;73036;-68
2023/09/20 05:08:08;;;;;;;6.80;5.10;;;;;;;19.55;60.90;100501.34;108031;1260;72510;-68
2023/09/20 05:10:37;;;;;;;6.00;4.50;;;;;;;19.57;60.78;100508.47;108196;1255;61732;-69
2023/09/20 05:13:08;;;;;;;5.30;4.50;;;;;;;19.58;60.51;100508.52;108051;1257;59439;-69
2023/09/20 05:15:39;;;;;;;7.70;5.20;;;;;;;19.60;60.40;100506.57;107996;1257;73895;-68
2023/09/20 05:18:07;;;;;;;8.20;4.90;;;;;;;19.60;60.22;100507.91;108022;1255;71604;-68
2023/09/20 05:20:36;;;;;;;7.60;5.00;;;;;;;19.60;60.10;100504.65;108052;1256;72744;-68
2023/09/20 05:23:04;;;;;;;7.10;5.20;;;;;;;19.61;60.04;100505.78;108037;1254;61634;-68
2023/09/20 05:25:33;;;;;;;6.20;4.60;;;;;;;19.61;59.97;100507.23;108095;1256;60401;-68
2023/09/20 05:28:02;;;;;;;7.30;4.70;;;;;;;19.60;60.18;100512.62;108124;1254;73875;-69
2023/09/20 05:30:30;;;;;;;6.30;5.00;;;;;;;19.59;59.89;100510.96;108200;1254;73456;-69
2023/09/20 05:32:58;;;;;;;7.10;5.20;;;;;;;19.59;59.69;100507.09;108047;1257;72679;-69
2023/09/20 05:35:26;;;;;;;7.70;5.00;;;;;;;19.59;59.55;100511.59;108119;1257;60454;-68
2023/09/20 05:37:54;;;;;;;6.00;5.00;;;;;;;19.58;59.58;100518.33;108124;1254;60326;-69
2023/09/20 05:40:22;;;;;;;11.40;5.30;;;;;;;19.58;59.70;100516.59;108105;1254;73886;-70
2023/09/20 05:42:50;;;;;;;6.50;4.90;;;;;;;19.57;59.81;100515.81;108120;1254;74859;-69
2023/09/20 05:45:23;;;;;;;7.00;5.40;;;;;;;19.56;59.78;100514.70;108161;1254;71668;-69
2023/09/20 05:47:51;;;;;;;7.10;5.40;;;;;;;19.58;59.81;100516.93;108053;1260;60896;-69
2023/09/20 05:50:23;;;;;;;6.70;5.10;;;;;;;19.60;59.72;100520.11;108220;1254;60442;-69
2023/09/20 05:52:51;;;;;;;7.40;5.10;;;;;;;19.60;59.65;100517.59;108183;1254;72595;-69
2023/09/20 05:55:19;;;;;;;6.20;4.90;;;;;;;19.64;59.58;100519.69;108175;1254;71469;-69
2023/09/20 05:57:46;;;;;;;5.60;5.00;;;;;;;19.67;59.45;100517.64;108146;1257;71475;-69
2023/09/20 06:00:22;;;;;;;7.20;5.40;;;;;;;19.74;59.41;100516.93;108177;1257;60433;-68
2023/09/20 06:02:51;;;;;;;7.90;5.50;;;;;;;19.82;59.24;100520.20;108151;1254;59243;-68
2023/09/20 06:05:20;;;;;;;7.80;5.10;;;;;;;19.93;59.15;100523.48;108182;1254;73844;-68
2023/09/20 06:07:48;;;;;;;7.00;5.50;;;;;;;20.06;59.03;100522.48;108061;1254;73477;-69
2023/09/20 06:10:17;;;;;;;6.90;5.50;;;;;;;20.15;58.76;100525.38;108049;1254;71770;-67
2023/09/20 06:12:46;;;;;;;8.30;5.70;;;;;;;20.26;58.78;100526.08;108053;1254;60434;-68
2023/09/20 06:15:13;;;;;;;7.00;5.60;;;;;;;20.40;58.62;100523.23;108022;1254;60314;-68
2023/09/20 06:17:47;;;;;;;7.90;5.70;;;;;;;20.55;58.35;100521.40;108174;1254;74306;-68
2023/09/20 06:20:21;;;;;;;7.50;5.30;;;;;;;20.69;58.13;100521.60;108140;1259;72738;-68
2023/09/20 06:22:49;;;;;;;7.50;5.50;;;;;;;20.82;57.90;100527.32;108071;1254;70717;-69
2023/09/20 06:25:22;;;;;;;7.00;5.40;;;;;;;20.94;57.29;100524.79;108200;1254;60767;-68
2023/09/20 06:27:53;;;;;;;7.00;5.50;;;;;;;21.03;56.70;100524.52;108157;1253;60323;-68
2023/09/20 15:00:49;;;;;;;9.20;6.80;;;;;;;22.95;57.84;100546.06;105944;1280;613981;-71
2023/09/20 15:03:17;;;;;;;8.40;6.80;;;;;;;23.31;56.73;100549.08;107163;1266;168437;-69
2023/09/20 15:05:45;;;;;;;8.30;6.60;;;;;;;23.30;56.61;100546.79;107396;1267;60110;-69
2023/09/20 15:08:13;;;;;;;7.90;6.20;;;;;;;23.27;56.68;100547.95;107261;1268;72332;-69
2023/09/20 15:10:43;;;;;;;9.50;6.70;;;;;;;23.26;56.69;100545.95;107241;1265;73120;-69
2023/09/20 15:13:11;;;;;;;8.10;6.60;;;;;;;23.24;56.74;100546.61;107384;1265;73228;-69
2023/09/20 15:15:38;;;;;;;8.50;5.80;;;;;;;23.22;56.75;100549.02;107346;1266;63948;-67
2023/09/20 15:18:07;;;;;;;9.00;5.80;;;;;;;23.18;56.86;100545.26;107388;1266;59930;-68
2023/09/20 15:20:35;;;;;;;6.80;5.60;;;;;;;23.11;56.89;100545.21;107356;1266;72545;-68
2023/09/20 15:23:05;;;;;;;6.50;5.90;;;;;;;23.06;57.20;100547.45;107589;1262;72558;-70
2023/09/20 15:25:32;;;;;;;7.10;5.90;;;;;;;23.00;57.29;100549.35;107484;1262;71483;-69
2023/09/20 15:28:00;;;;;;;6.50;5.80;;;;;;;22.97;57.46;100551.27;107550;1261;60024;-70
2023/09/20 15:30:29;;;;;;;6.80;6.00;;;;;;;22.93;57.51;100553.60;107568;1261;60000;-69
2023/09/20 15:32:58;;;;;;;7.80;6.10;;;;;;;22.90;57.70;100552.75;107613;1261;73200;-68
2023/09/20 15:35:26;;;;;;;7.20;5.80;;;;;;;22.86;57.94;100545.92;107574;1262;72883;-70
2023/09/20 15:37:54;;;;;;;7.00;6.10;;;;;;;22.83;57.90;100548.93;107554;1262;73698;-68
2023/09/20 15:40:25;;;;;;;7.00;5.80;;;;;;;22.78;58.10;100557.25;107430;1261;61651;-71
2023/09/20 15:42:55;;;;;;;8.30;6.50;;;;;;;22.74;58.27;100559.39;107613;1260;59955;-70
2023/09/20 15:45:23;;;;;;;7.70;6.30;;;;;;;22.70;58.35;100559.59;107550;1262;71483;-70
2023/09/20 15:47:51;;;;;;;11.60;7.60;;;;;;;22.68;58.50;100564.27;107806;1262;75053;-69
2023/09/20 15:50:19;;;;;;;11.90;7.20;;;;;;;22.67;58.59;100564.23;107733;1259;73158;-69
2023/09/20 15:52:48;;;;;;;10.00;7.30;;;;;;;22.63;58.75;100571.23;107831;1259;61854;-70
2023/09/20 15:55:17;;;;;;;10.30;7.20;;;;;;;22.58;59.02;100575.10;107760;1259;59472;-69
2023/09/20 15:57:45;;;;;;;11.30;7.20;;;;;;;22.52;59.16;100574.30;107772;1258;73155;-68
2023/09/20 16:00:14;;;;;;;8.30;6.30;;;;;;;22.45;59.62;100571.27;107718;1259;74700;-69
2023/09/20 16:02:44;;;;;;;7.50;6.00;;;;;;;22.41;59.77;100575.57;107698;1258;71412;-68
2023/09/20 16:05:15;;;;;;;7.90;6.10;;;;;;;22.38;60.08;100577.08;107673;1257;60834;-69
2023/09/20 16:07:43;;;;;;;6.80;5.80;;;;;;;22.33;60.31;100580.23;107769;1257;60283;-69
2023/09/20 16:10:17;;;;;;;6.30;5.60;;;;;;;22.28;60.71;100583.64;107618;1258;73577;-69
2023/09/20 16:12:46;;;;;;;7.50;6.30;;;;;;;22.27;60.90;100581.03;107722;1259;73354;-68
2023/09/20 16:15:15;;;;;;;9.40;5.70;;;;;;;22.27;61.23;100584.23;107688;1259;72767;-68
2023/09/20 16:17:44;;;;;;;6.40;5.60;;;;;;;22.26;61.37;100586.77;107700;1259;63896;-70
2023/09/20 16:20:14;;;;;;;7.40;6.10;;;;;;;22.24;61.70;100590.66;107783;1258;60974;-68
2023/09/20 16:22:44;;;;;;;7.10;5.80;;;;;;;22.22;62.08;100594.02;107780;1259;73015;-69
2023/09/20 16:25:15;;;;;;;6.30;5.70;;;;;;;22.18;62.33;100598.24;107734;1259;71548;-69
2023/09/20 16:27:44;;;;;;;6.80;5.90;;;;;;;22.18;62.55;100599.61;107739;1259;71380;-69
2023/09/20 16:30:14;;;;;;;8.70;6.30;;;;;;;22.16;62.73;100600.71;107767;1258;61774;-69
2023/09/20 16:32:46;;;;;;;7.00;6.30;;;;;;;22.14;62.91;100603.48;107762;1258;62241;-69
2023/09/20 16:35:15;;;;;;;;;;;;;;;22.14;63.17;100604.67;107795;1258;71831;-69
2023/09/20 16:37:52;;;;;;;7.60;6.40;;;;;;;22.12;63.28;100607.16;107755;1260;72904;-69
2023/09/20 16:40:20;;;;;;;7.00;5.90;;;;;;;22.14;63.42;100613.58;107749;1259;71199;-68
2023/09/20 16:42:48;;;;;;;9.30;6.10;;;;;;;22.53;62.59;100609.65;107732;1260;60513;-69
2023/09/20 16:45:17;;;;;;;7.90;6.60;;;;;;;22.45;62.72;100611.29;107736;1259;60159;-69
2023/09/20 16:47:45;;;;;;;8.90;7.00;;;;;;;22.08;63.54;100616.71;107768;1260;73059;-69
2023/09/20 16:50:13;;;;;;;8.10;6.80;;;;;;;22.02;64.07;100620.08;107742;1257;72882;-69
2023/09/20 16:52:41;;;;;;;7.00;6.30;;;;;;;22.00;64.18;100620.79;107817;1257;72501;-69
2023/09/20 16:55:12;;;;;;;7.80;6.20;;;;;;;21.98;64.28;100624.30;107731;1259;60542;-69
2023/09/20 16:57:39;;;;;;;8.20;6.40;;;;;;;21.95;64.63;100620.67;107679;1259;61675;-70
2023/09/20 17:00:14;;;;;;;8.00;6.40;;;;;;;21.92;64.81;100627.32;107720;1262;72048;-69
2023/09/20 17:02:43;;;;;;;8.40;6.50;;;;;;;21.90;64.91;100628.01;107754;1257;74616;-69
2023/09/20 17:05:14;;;;;;;8.10;6.30;;;;;;;21.89;65.13;100632.95;107690;1257;72817;-69
2023/09/20 17:07:43;;;;;;;7.60;6.60;;;;;;;21.88;65.17;100634.64;107722;1262;61859;-69
2023/09/20 17:10:12;;;;;;;7.50;6.30;;;;;;;21.89;65.39;100635.83;107718;1259;59524;-69
2023/09/20 17:12:43;;;;;;;7.60;6.50;;;;;;;21.88;65.51;100641.72;107785;1259;71707;-69
2023/09/20 17:15:13;;;;;;;7.00;6.30;;;;;;;21.88;65.56;100645.17;107750;1259;72170;-69
2023/09/20 17:17:45;;;;;;;7.00;5.90;;;;;;;21.90;65.74;100647.05;107759;1259;71698;-68
2023/09/20 17:20:15;;;;;;;7.10;6.20;;;;;;;21.91;65.74;100646.33;107784;1259;60334;-69
2023/09/20 17:22:44;;;;;;;7.50;6.30;;;;;;;21.93;65.78;100648.79;107738;1259;59578;-68
2023/09/20 17:25:12;;;;;;;7.00;6.10;;;;;;;21.93;65.71;100651.14;107803;1259;72712;-67
2023/09/20 17:27:44;;;;;;;8.80;6.10;;;;;;;21.95;65.79;100654.23;107761;1259;73773;-69
2023/09/20 17:30:19;;;;;;;7.90;6.00;;;;;;;21.95;65.70;100654.79;107730;1259;74848;-68
2023/09/20 17:32:49;;;;;;;7.60;6.30;;;;;;;21.96;65.59;100660.64;107741;1259;61951;-68
2023/09/20 17:35:17;;;;;;;7.40;6.70;;;;;;;21.94;65.84;100661.29;107783;1259;60147;-68
2023/09/20 17:37:45;;;;;;;6.80;6.10;;;;;;;21.92;65.66;100668.65;107779;1262;71871;-69
2023/09/20 17:40:16;;;;;;;7.30;5.70;;;;;;;21.90;65.71;100667.17;107770;1259;73170;-69
2023/09/20 17:42:45;;;;;;;7.80;6.20;;;;;;;21.87;65.80;100670.17;107741;1259;71625;-69
2023/09/20 17:45:13;;;;;;;9.10;6.50;;;;;;;21.85;65.73;100669.40;107710;1263;63813;-69
2023/09/20 17:47:43;;;;;;;6.90;6.20;;;;;;;21.84;65.87;100674.73;107734;1258;62128;-69
2023/09/20 17:50:12;;;;;;;7.10;6.40;;;;;;;21.79;66.00;100676.25;107781;1259;73281;-70
2023/09/20 17:52:41;;;;;;;7.10;6.40;;;;;;;21.75;66.16;100678.66;107755;1258;74612;-70
2023/09/20 17:55:09;;;;;;;7.40;6.10;;;;;;;21.73;66.10;100679.34;107760;1257;72837;-68
2023/09/20 17:57:37;;;;;;;8.10;6.10;;;;;;;21.69;66.10;100682.39;107761;1259;61504;-68
2023/09/20 18:00:13;;;;;;;9.70;6.30;;;;;;;21.65;66.46;100680.29;107782;1259;59420;-69
2023/09/20 18:02:41;;;;;;;6.90;6.20;;;;;;;21.64;66.50;100678.29;107791;1259;73701;-69
2023/09/20 18:05:09;;;;;;;6.80;6.10;;;;;;;21.64;66.58;100679.83;107793;1259;71600;-69
2023/09/20 18:07:37;;;;;;;7.50;5.90;;;;;;;21.59;66.89;100682.99;107690;1259;71816;-69
2023/09/20 18:10:05;;;;;;;6.80;6.10;;;;;;;21.54;66.95;100680.87;107755;1257;60963;-69
2023/09/20 18:12:34;;;;;;;6.80;5.90;;;;;;;21.54;67.09;100680.39;107756;1257;60439;-69
2023/09/20 18:15:03;;;;;;;7.10;6.00;;;;;;;21.54;67.22;100681.31;107720;1258;71224;-69
2023/09/20 18:17:33;;;;;;;8.40;6.00;;;;;;;21.54;67.18;100677.42;107713;1257;72853;-69
2023/09/20 18:20:03;;;;;;;6.80;5.70;;;;;;;21.51;67.25;100682.14;107759;1259;70968;-69
2023/09/20 18:22:31;;;;;;;6.00;5.40;;;;;;;21.49;67.31;100682.92;107963;1259;61965;-69
2023/09/20 18:25:01;;;;;;;6.90;5.80;;;;;;;21.45;67.35;100685.94;108108;1254;60139;-68
2023/09/20 18:27:29;;;;;;;7.20;6.10;;;;;;;21.41;67.48;100690.50;108333;1254;76017;-68
2023/09/20 18:29:56;;;;;;;6.80;6.00;;;;;;;21.40;67.90;100693.54;107982;1260;71888;-69
2023/09/20 18:32:25;;;;;;;7.20;5.80;;;;;;;21.38;68.05;100694.50;108085;1254;71561;-69
2023/09/20 18:34:53;;;;;;;6.50;5.80;;;;;;;21.39;67.98;100696.39;108012;1254;61757;-69
2023/09/20 18:37:22;;;;;;;6.90;5.60;;;;;;;21.39;68.14;100695.68;108042;1254;60173;-69
2023/09/20 18:39:50;;;;;;;7.00;5.30;;;;;;;21.37;68.05;100697.23;107851;1257;73159;-69
2023/09/20 18:42:19;;;;;;;7.80;5.60;;;;;;;21.31;68.21;100698.25;108020;1260;71724;-69
2023/09/20 18:44:48;;;;;;;7.90;5.60;;;;;;;21.27;68.34;100700.55;108020;1257;73016;-70
2023/09/20 18:47:17;;;;;;;8.80;5.70;;;;;;;21.26;68.42;100701.27;107990;1260;62226;-70
2023/09/20 18:49:53;;;;;;;7.40;5.80;;;;;;;21.26;68.32;100699.20;107971;1259;60920;-70
2023/09/20 18:52:21;;;;;;;7.40;5.80;;;;;;;21.25;68.48;100703.09;108049;1254;74185;-70
2023/09/20 18:54:51;;;;;;;8.00;6.10;;;;;;;21.23;68.65;100703.71;108083;1260;74812;-69
2023/09/20 18:57:22;;;;;;;7.70;5.90;;;;;;;21.21;68.57;100705.66;108007;1260;72882;-68
2023/09/20 18:59:49;;;;;;;9.00;6.20;;;;;;;21.20;68.61;100705.86;107970;1256;63875;-69
2023/09/20 19:02:23;;;;;;;8.80;6.20;;;;;;;21.33;68.48;100701.10;108071;1260;62059;-70
2023/09/20 19:04:53;;;;;;;10.10;6.50;;;;;;;21.26;68.70;100703.70;108050;1254;71735;-69
2023/09/20 19:07:23;;;;;;;7.00;5.50;;;;;;;21.25;68.98;100702.15;107977;1256;75130;-70
2023/09/20 19:09:54;;;;;;;8.00;6.50;;;;;;;21.25;68.92;100702.95;107989;1258;73364;-69
2023/09/20 19:12:22;;;;;;;7.60;6.00;;;;;;;21.26;68.88;100705.65;108027;1257;62250;-69
2023/09/20 19:14:51;;;;;;;9.00;5.90;;;;;;;21.28;68.87;100707.43;108055;1258;60584;-70
2023/09/20 19:17:19;;;;;;;6.90;5.50;;;;;;;21.31;68.99;100705.91;108047;1257;74029;-68
2023/09/20 19:19:47;;;;;;;7.60;6.00;;;;;;;21.31;68.98;100708.78;107988;1257;75036;-69
2023/09/20 19:22:15;;;;;;;12.40;5.90;;;;;;;21.31;69.03;100710.02;108055;1260;71454;-69
2023/09/20 19:24:44;;;;;;;7.20;5.90;;;;;;;21.30;69.09;100712.40;108001;1257;63052;-68
2023/09/20 19:27:13;;;;;;;6.90;5.60;;;;;;;21.29;69.06;100713.83;108039;1260;62338;-68
2023/09/20 19:29:41;;;;;;;7.20;5.20;;;;;;;21.29;69.26;100718.01;108008;1258;74117;-68
2023/09/20 19:32:08;;;;;;;7.50;6.00;;;;;;;21.30;69.41;100714.03;108051;1258;72454;-70
2023/09/20 19:34:36;;;;;;;7.20;5.70;;;;;;;21.30;69.46;100716.91;107977;1257;71090;-68
2023/09/20 19:37:04;;;;;;;7.10;5.90;;;;;;;21.28;69.38;100718.93;108040;1258;63019;-69
2023/09/20 19:39:34;;;;;;;7.20;5.80;;;;;;;21.28;69.46;100723.09;108013;1254;62060;-69
2023/09/20 19:42:02;;;;;;;7.00;5.60;;;;;;;21.27;69.57;100723.30;108095;1254;74387;-69
2023/09/20 19:44:30;;;;;;;7.00;5.90;;;;;;;21.28;69.71;100725.58;108065;1259;72728;-69
2023/09/20 19:46:58;;;;;;;7.60;5.90;;;;;;;21.27;69.84;100727.02;108006;1257;72435;-69
2023/09/20 19:49:26;;;;;;;7.60;5.80;;;;;;;21.25;70.05;100728.66;107749;1260;62506;-68
2023/09/20 19:51:55;;;;;;;6.40;5.40;;;;;;;21.23;70.18;100731.06;107869;1254;60320;-70
2023/09/20 19:54:24;;;;;;;6.70;5.40;;;;;;;21.19;70.08;100734.84;78413;1257;20001920;-68
2023/09/20 19:56:52;;;;;;;6.80;5.70;;;;;;;21.15;70.13;100732.42;108394;1255;64011;-69